createdAt,value
2024-05-09T00:00:06.875Z,17.25
2024-05-09T00:02:56.762Z,12.20
2024-05-09T00:05:46.869Z,15.55
2024-05-09T00:08:33.593Z,16.25
2024-05-09T00:11:20.731Z,12.25
2024-05-09T00:14:07.438Z,14.70
2024-05-09T00:16:53.940Z,11.40
2024-05-09T00:19:40.483Z,17.83
2024-05-09T00:22:29.605Z,12.50
2024-05-09T00:25:16.193Z,13.43
2024-05-09T00:28:03.352Z,14.75
2024-05-09T00:30:49.871Z,11.18
2024-05-09T00:33:36.447Z,13.63
2024-05-09T00:36:23.004Z,13.30
2024-05-09T00:39:12.174Z,13.45
2024-05-09T00:41:59.778Z,13.10
2024-05-09T00:44:46.201Z,15.25
2024-05-09T00:47:33.209Z,18.33
2024-05-09T00:50:29.348Z,18.33
2024-05-09T00:53:21.789Z,23.35
2024-05-09T00:56:13.147Z,18.85
2024-05-09T00:58:59.734Z,23.50
2024-05-09T01:01:47.127Z,26.80
2024-05-09T01:04:33.606Z,21.95
2024-05-09T01:07:20.099Z,18.60
2024-05-09T01:10:13.801Z,15.75
2024-05-09T01:13:07.345Z,19.52
2024-05-09T01:15:54.180Z,18.95
2024-05-09T01:18:40.850Z,26.83
2024-05-09T01:21:27.500Z,24.02
2024-05-09T01:24:16.762Z,24.30
2024-05-09T01:27:03.286Z,27.20
2024-05-09T01:29:49.838Z,21.08
2024-05-09T01:32:36.401Z,20.30
2024-05-09T01:35:23.524Z,19.50
2024-05-09T01:38:12.940Z,18.05
2024-05-09T01:41:02.404Z,27.38
2024-05-09T01:43:48.908Z,20.35
2024-05-09T01:46:35.349Z,22.15
2024-05-09T01:49:21.938Z,24.83
2024-05-09T01:52:08.612Z,20.02
2024-05-09T01:54:55.095Z,23.38
2024-05-09T01:57:44.239Z,19.27
2024-05-09T02:00:38.713Z,29.27
2024-05-09T02:03:28.378Z,26.48
2024-05-09T02:06:15.030Z,28.63
2024-05-09T02:09:01.612Z,31.02
2024-05-09T02:11:50.368Z,27.08
2024-05-09T02:14:39.621Z,31.25
2024-05-09T02:17:26.253Z,23.45
2024-05-09T02:20:18.749Z,28.17
2024-05-09T02:23:13.919Z,20.23
2024-05-09T02:26:00.575Z,23.77
2024-05-09T02:28:47.074Z,18.60
2024-05-09T02:31:36.221Z,19.35
2024-05-09T02:34:23.036Z,24.55
2024-05-09T02:37:09.609Z,16.08
2024-05-09T02:39:53.418Z,22.83
2024-05-09T02:42:39.817Z,17.73
2024-05-09T02:45:25.008Z,26.00
2024-05-09T02:48:15.993Z,31.08
2024-05-09T02:51:01.858Z,23.33
2024-05-09T02:53:48.346Z,17.85
2024-05-09T02:56:32.154Z,20.85
2024-05-09T02:59:18.989Z,18.35
2024-05-09T03:02:02.929Z,20.52
2024-05-09T03:07:35.953Z,21.27
2024-05-09T03:10:28.181Z,18.90
2024-05-09T03:13:16.076Z,25.02
2024-05-09T03:16:03.153Z,20.90
2024-05-09T03:18:47.062Z,17.20
2024-05-09T03:21:36.186Z,18.45
2024-05-09T03:24:19.994Z,23.00
2024-05-09T03:27:06.618Z,25.13
2024-05-09T03:29:50.391Z,19.40
2024-05-09T03:32:37.074Z,19.55
2024-05-09T03:35:20.922Z,22.30
2024-05-09T03:38:10.242Z,17.08
2024-05-09T03:40:56.820Z,18.88
2024-05-09T03:43:43.367Z,18.10
2024-05-09T03:46:29.769Z,16.98
2024-05-09T03:49:13.744Z,19.02
2024-05-09T03:54:51.499Z,12.32
2024-05-09T03:57:38.028Z,12.95
2024-05-09T04:00:35.632Z,14.35
2024-05-09T04:03:25.717Z,18.95
2024-05-09T04:06:09.602Z,15.25
2024-05-09T04:08:56.230Z,15.77
2024-05-09T04:11:42.723Z,14.75
2024-05-09T04:14:29.267Z,15.52
2024-05-09T04:17:15.755Z,14.00
2024-05-09T04:20:00.085Z,15.43
2024-05-09T04:22:46.590Z,14.93
2024-05-09T04:25:31.672Z,15.85
2024-05-09T04:28:23.876Z,10.93
2024-05-09T04:31:07.580Z,13.13
2024-05-09T04:33:54.351Z,9.32
2024-05-09T04:36:40.276Z,12.52
2024-05-09T04:39:28.100Z,8.18
2024-05-09T04:42:11.812Z,11.23
2024-05-09T04:45:00.979Z,14.13
2024-05-09T04:47:44.856Z,11.75
2024-05-09T04:50:36.899Z,44.45
2024-05-09T04:53:25.468Z,18.80
2024-05-09T04:56:09.385Z,18.13
2024-05-09T04:58:55.939Z,15.70
2024-05-09T05:01:42.412Z,17.15
2024-05-09T05:04:29.923Z,16.00
2024-05-09T05:07:13.701Z,19.65
2024-05-09T05:10:00.302Z,18.23
2024-05-09T05:13:02.759Z,16.65
2024-05-09T05:15:49.551Z,11.75
2024-05-09T05:18:38.806Z,14.35
2024-05-09T05:21:22.822Z,10.38
2024-05-09T05:24:09.662Z,12.50
2024-05-09T05:26:53.492Z,13.65
2024-05-09T05:29:39.976Z,15.85
2024-05-09T05:32:23.965Z,22.73
2024-05-09T05:35:13.401Z,27.13
2024-05-09T05:37:57.292Z,19.63
2024-05-09T05:40:44.059Z,15.43
2024-05-09T05:43:29.757Z,17.30
2024-05-09T05:46:16.231Z,13.88
2024-05-09T05:49:00.715Z,13.25
2024-05-09T05:51:50.034Z,16.85
2024-05-09T05:54:33.773Z,15.60
2024-05-09T05:57:20.229Z,13.52
2024-05-09T06:00:09.447Z,18.02
2024-05-09T06:02:56.498Z,21.42
2024-05-09T06:05:40.957Z,14.52
2024-05-09T06:08:30.694Z,9.30
2024-05-09T06:11:14.607Z,9.50
2024-05-09T06:14:02.110Z,10.40
2024-05-09T06:16:46.271Z,15.25
2024-05-09T06:19:33.341Z,10.75
2024-05-09T06:22:17.237Z,9.98
2024-05-09T06:25:06.862Z,8.88
2024-05-09T06:27:50.705Z,8.95
2024-05-09T06:30:40.700Z,9.38
2024-05-09T06:33:26.544Z,9.57
2024-05-09T06:36:13.834Z,8.88
2024-05-09T06:39:00.280Z,15.40
2024-05-09T06:41:46.752Z,15.05
2024-05-09T06:44:33.293Z,14.95
2024-05-09T06:47:17.223Z,15.35
2024-05-09T06:50:04.970Z,14.43
2024-05-09T06:52:52.007Z,14.30
2024-05-09T06:55:39.707Z,12.73
2024-05-09T06:58:26.136Z,11.15
2024-05-09T07:01:12.700Z,8.02
2024-05-09T07:03:57.022Z,11.02
2024-05-09T07:06:43.450Z,8.90
2024-05-09T07:09:27.170Z,9.57
2024-05-09T07:12:13.693Z,12.15
2024-05-09T07:15:00.391Z,10.02
2024-05-09T07:17:46.967Z,10.35
2024-05-09T07:20:34.627Z,10.70
2024-05-09T07:23:22.051Z,10.15
2024-05-09T07:26:05.968Z,11.77
2024-05-09T07:28:52.562Z,14.85
2024-05-09T07:31:38.960Z,8.25
2024-05-09T07:34:25.602Z,11.85
2024-05-09T07:37:12.869Z,10.98
2024-05-09T07:39:59.322Z,9.32
2024-05-09T07:42:43.082Z,12.23
2024-05-09T07:45:45.701Z,16.27
2024-05-09T07:54:14.785Z,11.32
2024-05-09T07:56:58.864Z,14.02
2024-05-09T07:59:45.375Z,14.35
2024-05-09T08:02:29.241Z,12.20
2024-05-09T08:05:18.780Z,12.05
2024-05-09T08:08:05.315Z,13.10
2024-05-09T08:10:49.157Z,13.55
2024-05-09T08:13:35.630Z,10.05
2024-05-09T08:16:19.622Z,12.65
2024-05-09T08:19:06.305Z,11.57
2024-05-09T08:21:52.869Z,8.65
2024-05-09T08:24:39.269Z,11.60
2024-05-09T08:27:23.096Z,9.80
2024-05-09T08:30:18.799Z,12.23
2024-05-09T08:33:08.920Z,10.27
2024-05-09T08:35:55.338Z,11.18
2024-05-09T08:38:41.793Z,7.95
2024-05-09T08:41:28.321Z,6.95
2024-05-09T08:44:12.201Z,7.95
2024-05-09T08:46:59.110Z,7.38
2024-05-09T08:49:42.996Z,12.90
2024-05-09T08:52:29.830Z,7.57
2024-05-09T08:55:16.474Z,12.52
2024-05-09T08:58:06.483Z,15.00
2024-05-09T09:00:50.429Z,14.90
2024-05-09T09:03:40.548Z,11.95
2024-05-09T09:06:25.903Z,14.77
2024-05-09T09:09:13.049Z,24.73
2024-05-09T09:11:59.539Z,22.80
2024-05-09T09:14:45.970Z,18.05
2024-05-09T09:17:29.781Z,15.43
2024-05-09T09:20:22.982Z,26.77
2024-05-09T09:23:10.418Z,21.33
2024-05-09T09:25:56.880Z,24.30
2024-05-09T09:28:44.931Z,20.38
2024-05-09T09:31:31.448Z,19.10
2024-05-09T09:34:18.117Z,21.52
2024-05-09T09:37:05.584Z,22.77
2024-05-09T09:39:53.040Z,22.00
2024-05-09T09:42:38.602Z,16.23
2024-05-09T09:45:27.855Z,15.40
2024-05-09T09:48:15.043Z,16.60
2024-05-09T09:51:03.266Z,16.65
2024-05-09T09:53:51.988Z,14.57
2024-05-09T09:56:39.140Z,16.00
2024-05-09T09:59:25.916Z,11.27
2024-05-09T10:02:14.076Z,24.88
2024-05-09T10:05:00.990Z,67.72
2024-05-09T10:07:48.608Z,54.00
2024-05-09T10:10:36.609Z,45.72
2024-05-09T10:13:21.033Z,77.35
2024-05-09T10:16:12.641Z,54.20
2024-05-09T10:18:59.466Z,34.53
2024-05-09T10:21:49.832Z,42.63
2024-05-09T10:24:48.610Z,53.85
2024-05-09T10:27:35.322Z,68.95
2024-05-09T10:30:29.760Z,50.17
2024-05-09T10:33:23.211Z,33.92
2024-05-09T10:36:14.373Z,39.75
2024-05-09T10:39:02.438Z,33.88
2024-05-09T10:41:46.203Z,25.73
2024-05-09T10:44:32.646Z,30.02
2024-05-09T10:47:16.380Z,50.92
2024-05-09T10:50:04.877Z,43.13
2024-05-09T10:52:53.336Z,42.20
2024-05-09T10:55:39.692Z,34.30
2024-05-09T10:58:24.116Z,28.05
2024-05-09T11:01:11.827Z,29.80
2024-05-09T11:03:57.302Z,42.92
2024-05-09T11:06:28.923Z,37.60
2024-05-09T11:09:00.827Z,39.17
2024-05-09T11:11:32.661Z,44.55
2024-05-09T11:14:12.035Z,48.45
2024-05-09T11:16:43.589Z,48.15
2024-05-09T11:19:14.112Z,36.85
2024-05-09T11:21:45.915Z,38.03
2024-05-09T11:24:17.597Z,53.83
2024-05-09T11:26:49.064Z,58.50
2024-05-09T11:29:19.560Z,49.63
2024-05-09T11:31:51.809Z,38.97
2024-05-09T11:34:21.069Z,32.53
2024-05-09T11:36:52.818Z,30.80
2024-05-09T11:39:24.969Z,28.95
2024-05-09T11:41:56.471Z,30.10
2024-05-09T11:44:25.371Z,28.80
2024-05-09T11:46:57.264Z,31.98
2024-05-09T11:49:27.109Z,30.77
2024-05-09T11:51:59.053Z,24.27
2024-05-09T11:54:30.690Z,26.67
2024-05-09T11:57:02.848Z,28.23
2024-05-09T11:59:31.702Z,23.67
2024-05-09T12:02:03.271Z,25.95
2024-05-09T12:04:32.335Z,27.48
2024-05-09T12:07:04.060Z,23.10
2024-05-09T12:09:35.630Z,25.15
2024-05-09T12:12:08.478Z,25.85
2024-05-09T12:14:37.183Z,30.83
2024-05-09T12:17:08.691Z,24.65
2024-05-09T12:19:37.725Z,17.40
2024-05-09T12:22:09.332Z,18.13
2024-05-09T12:24:40.902Z,15.10
2024-05-09T12:27:27.408Z,21.35
2024-05-09T12:30:14.252Z,15.00
2024-05-09T12:33:03.560Z,18.98
2024-05-09T12:35:50.136Z,14.60
2024-05-09T12:38:37.952Z,15.95
2024-05-09T12:41:28.498Z,13.32
2024-05-09T12:44:12.254Z,15.13
2024-05-09T12:46:58.724Z,17.40
2024-05-09T12:49:42.639Z,16.50
2024-05-09T12:55:12.942Z,22.23
2024-05-09T12:58:02.528Z,19.10
2024-05-09T13:00:47.004Z,16.67
2024-05-09T13:03:34.466Z,18.85
2024-05-09T13:06:18.537Z,10.32
2024-05-09T13:09:05.005Z,14.85
2024-05-09T13:11:48.864Z,10.43
2024-05-09T13:14:38.009Z,13.15
2024-05-09T13:17:24.771Z,11.05
2024-05-09T13:20:14.928Z,13.57
2024-05-09T13:23:07.900Z,12.57
2024-05-09T13:25:55.031Z,19.48
2024-05-09T13:28:38.777Z,13.02
2024-05-09T13:31:27.914Z,13.82
2024-05-09T13:34:11.901Z,13.88
2024-05-09T13:39:42.543Z,14.63
2024-05-09T13:42:29.133Z,15.60
2024-05-09T13:44:57.801Z,15.20
2024-05-09T13:47:47.270Z,15.57
2024-05-09T13:50:35.143Z,15.75
2024-05-09T13:53:24.173Z,12.15
2024-05-09T13:56:08.927Z,16.30
2024-05-09T13:58:55.526Z,15.27
2024-05-09T14:01:39.776Z,13.57
2024-05-09T14:04:29.138Z,16.38
2024-05-09T14:07:13.266Z,13.00
2024-05-09T14:12:43.394Z,11.13
2024-05-09T14:15:29.989Z,15.35
2024-05-09T14:18:14.736Z,11.10
2024-05-09T14:21:04.887Z,9.75
2024-05-09T14:23:48.751Z,10.15
2024-05-09T14:26:35.236Z,16.27
2024-05-09T14:29:18.986Z,11.65
2024-05-09T14:32:05.570Z,11.10
2024-05-09T14:34:49.540Z,8.57
2024-05-09T14:37:39.831Z,12.55
2024-05-09T14:43:13.975Z,9.82
2024-05-09T14:45:58.441Z,11.27
2024-05-09T14:48:45.515Z,9.43
2024-05-09T14:51:29.475Z,8.60
2024-05-09T14:54:18.587Z,11.18
2024-05-09T14:57:02.947Z,10.32
2024-05-09T14:59:49.831Z,8.43
2024-05-09T15:02:34.477Z,6.75
2024-05-09T15:05:21.131Z,8.18
2024-05-09T15:08:07.533Z,10.00
2024-05-09T15:10:56.926Z,7.95
2024-05-09T15:13:40.810Z,14.07
2024-05-09T15:16:27.610Z,10.05
2024-05-09T15:19:11.770Z,6.57
2024-05-09T15:24:42.280Z,8.75
2024-05-09T15:30:18.135Z,7.80
2024-05-09T15:33:08.165Z,8.32
2024-05-09T15:35:54.750Z,9.93
2024-05-09T15:38:39.408Z,8.18
2024-05-09T15:41:25.806Z,8.55
2024-05-09T15:44:12.670Z,7.60
2024-05-09T15:46:59.327Z,10.35
2024-05-09T15:49:43.437Z,12.07
2024-05-09T15:52:29.855Z,5.57
2024-05-09T15:55:14.366Z,10.13
2024-05-09T15:58:00.873Z,11.20
2024-05-09T16:00:52.128Z,11.80
2024-05-09T16:03:36.401Z,8.25
2024-05-09T16:09:06.792Z,12.18
2024-05-09T16:14:36.722Z,7.57
2024-05-09T16:17:26.064Z,8.50
2024-05-09T16:20:15.154Z,7.25
2024-05-09T16:23:04.744Z,7.93
2024-05-09T16:25:48.838Z,8.05
2024-05-09T16:28:36.914Z,9.77
2024-05-09T16:31:20.802Z,7.75
2024-05-09T16:34:10.939Z,9.77
2024-05-09T16:36:54.836Z,7.57
2024-05-09T16:39:41.394Z,8.52
2024-05-09T16:42:25.200Z,6.57
2024-05-09T16:45:12.460Z,7.22
2024-05-09T16:47:57.286Z,8.40
2024-05-09T16:50:46.471Z,7.72
2024-05-09T16:53:31.347Z,13.30
2024-05-09T16:56:17.878Z,6.88
2024-05-09T16:59:01.923Z,10.00
2024-05-09T17:01:48.550Z,8.45
2024-05-09T17:04:32.708Z,8.00
2024-05-09T17:07:22.031Z,10.20
2024-05-09T17:10:10.043Z,9.85
2024-05-09T17:12:58.764Z,9.82
2024-05-09T17:15:45.498Z,11.88
2024-05-09T17:18:31.964Z,8.35
2024-05-09T17:21:18.632Z,9.98
2024-05-09T17:24:05.270Z,9.82
2024-05-09T17:26:52.989Z,7.97
2024-05-09T17:29:37.539Z,10.02
2024-05-09T17:32:24.063Z,9.07
2024-05-09T17:35:08.171Z,12.25
2024-05-09T17:37:55.100Z,7.22
2024-05-09T17:40:41.698Z,7.65
2024-05-09T17:43:28.903Z,8.48
2024-05-09T17:46:13.090Z,11.20
2024-05-09T17:51:51.949Z,9.73
2024-05-09T17:54:38.857Z,9.43
2024-05-09T17:57:26.522Z,8.65
2024-05-09T18:00:17.419Z,13.35
2024-05-09T18:03:05.296Z,8.43
2024-05-09T18:05:51.970Z,10.05
2024-05-09T18:08:35.899Z,8.80
2024-05-09T18:11:22.419Z,9.98
2024-05-09T18:14:09.201Z,12.60
2024-05-09T18:16:55.757Z,12.43
2024-05-09T18:19:39.677Z,7.82
2024-05-09T18:22:26.673Z,11.90
2024-05-09T18:25:10.881Z,9.27
2024-05-09T18:28:00.257Z,9.20
2024-05-09T18:30:46.905Z,6.72
2024-05-09T18:33:33.787Z,6.07
2024-05-09T18:36:20.577Z,6.85
2024-05-09T18:39:05.378Z,5.55
2024-05-09T18:41:51.973Z,5.63
2024-05-09T18:44:35.718Z,5.47
2024-05-09T18:47:24.928Z,7.55
2024-05-09T18:50:12.076Z,6.68
2024-05-09T18:53:03.914Z,6.30
2024-05-09T18:55:47.662Z,12.18
2024-05-09T18:58:19.645Z,5.70
2024-05-09T19:00:50.506Z,6.43
2024-05-09T19:03:26.803Z,8.02
2024-05-09T19:05:56.242Z,5.18
2024-05-09T19:08:28.584Z,9.85
2024-05-09T19:10:58.472Z,4.82
2024-05-09T19:13:30.118Z,7.47
2024-05-09T19:15:59.033Z,4.10
2024-05-09T19:18:33.905Z,5.43
2024-05-09T19:21:02.920Z,3.88
2024-05-09T19:23:38.261Z,5.88
2024-05-09T19:26:10.113Z,3.28
2024-05-09T19:28:42.038Z,5.28
2024-05-09T19:31:11.079Z,4.38
2024-05-09T19:33:45.458Z,3.40
2024-05-09T19:36:14.459Z,7.40
2024-05-09T19:38:46.110Z,5.00
2024-05-09T19:41:15.234Z,4.07
2024-05-09T19:43:47.047Z,5.50
2024-05-09T19:46:16.481Z,7.22
2024-05-09T19:48:51.114Z,4.70
2024-05-09T19:51:20.116Z,3.63
2024-05-09T19:53:52.348Z,5.35
2024-05-09T19:56:21.357Z,5.47
2024-05-09T19:58:52.763Z,6.95
2024-05-09T20:01:21.541Z,6.43
2024-05-09T20:03:59.236Z,4.78
2024-05-09T20:06:29.659Z,4.88
2024-05-09T20:09:01.126Z,6.03
2024-05-09T20:11:44.917Z,8.43
2024-05-09T20:14:31.473Z,4.05
2024-05-09T20:17:15.262Z,2.63
2024-05-09T20:20:07.333Z,4.57
2024-05-09T20:22:51.182Z,4.20
2024-05-09T20:25:37.590Z,5.07
2024-05-09T20:28:21.398Z,5.10
2024-05-09T20:31:08.646Z,5.85
2024-05-09T20:33:52.438Z,6.22
2024-05-09T20:36:41.818Z,6.40
2024-05-09T20:39:26.284Z,8.68
2024-05-09T20:42:12.835Z,10.52
2024-05-09T20:44:56.602Z,8.23
2024-05-09T20:47:43.201Z,7.80
2024-05-09T20:50:36.062Z,3.75
2024-05-09T20:53:29.180Z,4.50
2024-05-09T20:56:13.037Z,10.05
2024-05-09T20:59:00.464Z,4.65
2024-05-09T21:01:48.660Z,4.90
2024-05-09T21:04:35.625Z,3.85
2024-05-09T21:07:19.778Z,8.13
2024-05-09T21:13:04.199Z,5.05
2024-05-09T21:15:51.257Z,4.70
2024-05-09T21:18:35.295Z,5.70
2024-05-09T21:21:21.934Z,4.20
2024-05-09T21:24:06.258Z,5.68
2024-05-09T21:26:55.543Z,10.05
2024-05-09T21:29:39.446Z,5.55
2024-05-09T21:32:26.179Z,4.20
2024-05-09T21:35:12.856Z,8.93
2024-05-09T21:37:56.791Z,8.45
2024-05-09T21:40:43.573Z,7.72
2024-05-09T21:43:31.709Z,6.05
2024-05-09T21:46:18.479Z,8.45
2024-05-09T21:49:03.431Z,7.85
2024-05-09T21:51:50.135Z,9.88
2024-05-09T21:54:34.113Z,6.70
2024-05-09T21:57:21.890Z,5.15
2024-05-09T22:00:27.920Z,8.57
2024-05-09T22:03:21.081Z,5.50
2024-05-09T22:06:05.229Z,4.22
2024-05-09T22:11:35.520Z,3.40
2024-05-09T22:14:22.501Z,5.38
2024-05-09T22:17:09.118Z,5.93
2024-05-09T22:19:56.373Z,4.80
2024-05-09T22:22:41.925Z,4.70
2024-05-09T22:25:30.689Z,4.40
2024-05-09T22:28:16.096Z,5.60
2024-05-09T22:31:02.967Z,3.70
2024-05-09T22:33:49.833Z,14.23
2024-05-09T22:36:36.530Z,3.50
2024-05-09T22:39:20.828Z,4.13
2024-05-09T22:42:08.087Z,5.90
2024-05-09T22:44:51.987Z,6.22
2024-05-09T22:47:38.656Z,5.82
2024-05-09T22:50:27.073Z,6.30
2024-05-09T22:53:18.880Z,8.63
2024-05-09T22:56:02.818Z,8.77
2024-05-09T22:58:49.403Z,8.13
2024-05-09T23:01:33.465Z,6.97
2024-05-09T23:04:20.038Z,7.45
2024-05-09T23:07:07.825Z,13.02
2024-05-09T23:09:54.562Z,11.52
2024-05-09T23:12:41.739Z,10.07
2024-05-09T23:15:25.806Z,9.38
2024-05-09T23:18:12.352Z,9.18
2024-05-09T23:20:56.582Z,13.50
2024-05-09T23:23:45.919Z,14.35
2024-05-09T23:26:29.829Z,12.50
2024-05-09T23:29:16.383Z,13.70
2024-05-09T23:32:00.190Z,11.75
2024-05-09T23:34:46.755Z,11.05
2024-05-09T23:37:30.686Z,11.07
2024-05-09T23:40:23.236Z,10.68
2024-05-09T23:43:08.518Z,15.45
2024-05-09T23:45:55.262Z,10.63
2024-05-09T23:48:39.180Z,10.13
2024-05-09T23:51:25.820Z,6.88
2024-05-09T23:54:09.612Z,7.85
2024-05-09T23:56:58.736Z,8.73
2024-05-09T23:59:42.530Z,6.85
